ADDS TAF Board (Experimental) INFO Settings
IDs: Format: Expanded Condensed

KBOS - Boston/Logan Intl, MA, US

Issued at 2324 UTC 27 Aug 2015
Updated at: 0507 UTC 28 Aug 2015
Time0454Z 28/06Z 28/07Z 28/08Z 28/09Z 28/10Z 28/11Z 28/12Z 28/13Z 28/14Z 28/15Z 28/16Z 28/17Z 28/18Z
Type OBS PRVL PRVL PRVL PRVL PRVL PRVL PRVL PRVL PRVL PRVL PRVL PRVL PRVL
VIS 10 >6 >6 >6 >6 >6 >6 >6 >6 >6 >6 >6 >6 >6
CIG -- -- -- -- -- -- -- -- -- -- -- -- -- --
Cover CLR FEW FEW FEW FEW FEW FEW FEW FEW FEW FEW FEW FEW FEW
FltCat VFR VFR VFR VFR VFR VFR VFR VFR VFR VFR VFR VFR VFR VFR
WX -- -- -- -- -- -- -- -- -- -- -- -- -- --
WDir 280 300 300 300 300 300 330 330 330 330 40 40 40 40
WSpd 7 7 7 7 7 7 5 5 5 5 4 4 4 4
WGst -- -- -- -- -- -- -- -- -- -- -- -- -- --
R04/22
XWnd 7 7 7 7 7 7 4 4 4 4 -1 -1 -1 -1
HWnd -1 1 1 1 1 1 3 3 3 3 4 4 4 4
R09/27
XWnd 3 5 5 5 5 5 5 5 5 5 2 2 2 2
HWnd -6 -5 -5 -5 -5 -5 -1 -1 -1 -1 3 3 3 3
R14/32
XWnd -3 -1 -1 -1 -1 -1 2 2 2 2 4 4 4 4
HWnd -6 -7 -7 -7 -7 -7 -5 -5 -5 -5 0 0 0 0
R15/33
XWnd -4 -2 -2 -2 -2 -2 1 1 1 1 4 4 4 4
HWnd -6 -7 -7 -7 -7 -7 -5 -5 -5 -5 -0 -0 -0 -0

NOTE: TEMPO conditions in [brackets]. Keep in mind TEMPO conditions might be better (lower impact) than prevailing conditions.

Raw TAF
KBOS 272324Z 2800/2906 29009KT P6SM FEW060 SCT250
  FM280400 30007KT P6SM FEW250
  FM281100 33005KT P6SM FEW250
  FM281500 04004KT P6SM FEW250
  FM282100 13004KT P6SM FEW250
  FM290300 20004KT P6SM FEW250


Raw METAR
KBOS 280454Z 28007KT 10SM CLR 20/12 A3008 RMK AO2 SLP184 T02000122 402780183
KBOS 280354Z 28005KT 10SM FEW090 21/13 A3007 RMK AO2 SLP182 T02060128
KBOS 280254Z 32009KT 10SM FEW090 22/12 A3006 RMK AO2 SLP179 T02170122 51017

METAR Board
Radar Display
Forecast Discussion

TAF Board Legend

Potential Impact
Threat None Slight Moderate High
Visibility (sm) ≥5.1 5.1>X≥3 3>X≥1 <1
Ceiling (100 ft) ≥30.1 30.1>X≥10 10>X≥5 <5
Wind Speed (kt) <10 10≤X<20 20≤X<30 ≥30
Wind Gust (kt) <15 15≤X<25 25≤X<35 ≥35
Weather No Wx Reported VCTS,-TS,-FZRA,SN TS,FZRA +TS,+FZRA,+SN